sensor_id;sensor_type;location;lat;lon;timestamp;P1;durP1;ratioP1;P2;durP2;ratioP2
52918;SDS011;38793;52.690;6.812;2022-09-09T00:06:50;9.68;;;2.60;;
52918;SDS011;38793;52.690;6.812;2022-09-09T00:09:27;13.98;;;3.63;;
52918;SDS011;38793;52.690;6.812;2022-09-09T00:11:55;6.00;;;3.28;;
52918;SDS011;38793;52.690;6.812;2022-09-09T00:17:14;7.90;;;2.45;;
52918;SDS011;38793;52.690;6.812;2022-09-09T00:22:30;4.35;;;2.90;;
52918;SDS011;38793;52.690;6.812;2022-09-09T00:25:01;9.38;;;3.00;;
52918;SDS011;38793;52.690;6.812;2022-09-09T00:27:44;9.48;;;4.05;;
52918;SDS011;38793;52.690;6.812;2022-09-09T00:30:17;4.47;;;3.03;;
52918;SDS011;38793;52.690;6.812;2022-09-09T00:32:45;10.90;;;3.03;;
52918;SDS011;38793;52.690;6.812;2022-09-09T00:35:16;7.35;;;2.50;;
52918;SDS011;38793;52.690;6.812;2022-09-09T00:37:49;10.73;;;2.70;;
52918;SDS011;38793;52.690;6.812;2022-09-09T00:40:22;9.02;;;3.30;;
52918;SDS011;38793;52.690;6.812;2022-09-09T00:48:38;9.27;;;3.13;;
52918;SDS011;38793;52.690;6.812;2022-09-09T00:57:10;9.02;;;2.55;;
52918;SDS011;38793;52.690;6.812;2022-09-09T00:59:46;10.20;;;3.05;;
52918;SDS011;38793;52.690;6.812;2022-09-09T01:02:16;5.88;;;3.88;;
52918;SDS011;38793;52.690;6.812;2022-09-09T01:04:43;6.40;;;3.47;;
52918;SDS011;38793;52.690;6.812;2022-09-09T01:07:15;5.63;;;3.05;;
52918;SDS011;38793;52.690;6.812;2022-09-09T01:12:41;8.57;;;3.47;;
52918;SDS011;38793;52.690;6.812;2022-09-09T01:15:09;8.18;;;4.30;;
52918;SDS011;38793;52.690;6.812;2022-09-09T01:18:06;6.63;;;3.90;;
52918;SDS011;38793;52.690;6.812;2022-09-09T01:23:38;8.98;;;3.80;;
52918;SDS011;38793;52.690;6.812;2022-09-09T01:28:59;5.93;;;4.25;;
52918;SDS011;38793;52.690;6.812;2022-09-09T01:31:31;7.55;;;3.90;;
52918;SDS011;38793;52.690;6.812;2022-09-09T01:34:12;4.93;;;4.40;;
52918;SDS011;38793;52.690;6.812;2022-09-09T01:36:43;4.53;;;3.47;;
52918;SDS011;38793;52.690;6.812;2022-09-09T01:39:15;10.73;;;3.83;;
52918;SDS011;38793;52.690;6.812;2022-09-09T01:41:40;13.23;;;4.22;;
52918;SDS011;38793;52.690;6.812;2022-09-09T01:44:06;6.15;;;4.35;;
52918;SDS011;38793;52.690;6.812;2022-09-09T01:46:33;7.20;;;3.80;;
52918;SDS011;38793;52.690;6.812;2022-09-09T01:48:58;8.65;;;3.95;;
52918;SDS011;38793;52.690;6.812;2022-09-09T01:51:27;11.52;;;4.07;;
52918;SDS011;38793;52.690;6.812;2022-09-09T01:53:53;6.97;;;3.92;;
52918;SDS011;38793;52.690;6.812;2022-09-09T01:59:07;6.68;;;4.15;;
52918;SDS011;38793;52.690;6.812;2022-09-09T02:02:07;8.23;;;3.65;;
52918;SDS011;38793;52.690;6.812;2022-09-09T02:04:41;7.43;;;3.63;;
52918;SDS011;38793;52.690;6.812;2022-09-09T02:12:55;9.90;;;3.83;;
52918;SDS011;38793;52.690;6.812;2022-09-09T02:15:32;5.60;;;4.10;;
52918;SDS011;38793;52.690;6.812;2022-09-09T02:18:04;5.88;;;4.18;;
52918;SDS011;38793;52.690;6.812;2022-09-09T02:20:34;4.70;;;3.72;;
52918;SDS011;38793;52.690;6.812;2022-09-09T02:23:04;8.32;;;3.72;;
52918;SDS011;38793;52.690;6.812;2022-09-09T02:25:33;4.22;;;3.72;;
52918;SDS011;38793;52.690;6.812;2022-09-09T02:28:01;6.22;;;4.70;;
52918;SDS011;38793;52.690;6.812;2022-09-09T02:30:30;4.10;;;3.75;;
52918;SDS011;38793;52.690;6.812;2022-09-09T02:32:59;4.60;;;3.72;;
52918;SDS011;38793;52.690;6.812;2022-09-09T02:35:27;3.80;;;3.38;;
52918;SDS011;38793;52.690;6.812;2022-09-09T02:37:56;6.90;;;3.40;;
52918;SDS011;38793;52.690;6.812;2022-09-09T02:40:25;4.97;;;3.70;;
52918;SDS011;38793;52.690;6.812;2022-09-09T02:42:51;6.65;;;3.60;;
52918;SDS011;38793;52.690;6.812;2022-09-09T02:45:19;5.22;;;2.67;;
52918;SDS011;38793;52.690;6.812;2022-09-09T02:47:56;2.65;;;1.55;;
52918;SDS011;38793;52.690;6.812;2022-09-09T02:50:32;2.88;;;1.38;;
52918;SDS011;38793;52.690;6.812;2022-09-09T02:53:14;0.88;;;0.47;;
52918;SDS011;38793;52.690;6.812;2022-09-09T02:55:56;2.72;;;1.00;;
52918;SDS011;38793;52.690;6.812;2022-09-09T02:58:28;1.55;;;0.40;;
52918;SDS011;38793;52.690;6.812;2022-09-09T03:00:54;3.63;;;1.08;;
52918;SDS011;38793;52.690;6.812;2022-09-09T03:03:22;0.93;;;0.40;;
52918;SDS011;38793;52.690;6.812;2022-09-09T03:05:48;1.08;;;0.70;;
52918;SDS011;38793;52.690;6.812;2022-09-09T03:08:15;4.72;;;0.50;;
52918;SDS011;38793;52.690;6.812;2022-09-09T03:13:06;1.33;;;0.50;;
52918;SDS011;38793;52.690;6.812;2022-09-09T03:15:33;2.20;;;1.40;;
52918;SDS011;38793;52.690;6.812;2022-09-09T03:17:59;4.10;;;3.10;;
52918;SDS011;38793;52.690;6.812;2022-09-09T03:20:25;5.80;;;3.97;;
52918;SDS011;38793;52.690;6.812;2022-09-09T03:22:52;8.02;;;5.18;;
52918;SDS011;38793;52.690;6.812;2022-09-09T03:25:19;14.50;;;6.63;;
52918;SDS011;38793;52.690;6.812;2022-09-09T03:27:45;10.88;;;7.70;;
52918;SDS011;38793;52.690;6.812;2022-09-09T03:30:11;11.75;;;7.45;;
52918;SDS011;38793;52.690;6.812;2022-09-09T03:32:37;12.00;;;8.30;;
52918;SDS011;38793;52.690;6.812;2022-09-09T03:35:03;15.93;;;9.55;;
52918;SDS011;38793;52.690;6.812;2022-09-09T03:37:28;14.85;;;9.77;;
52918;SDS011;38793;52.690;6.812;2022-09-09T03:39:54;13.05;;;9.95;;
52918;SDS011;38793;52.690;6.812;2022-09-09T03:42:20;11.98;;;8.82;;
52918;SDS011;38793;52.690;6.812;2022-09-09T03:44:46;10.48;;;9.00;;
52918;SDS011;38793;52.690;6.812;2022-09-09T03:47:15;11.13;;;8.20;;
52918;SDS011;38793;52.690;6.812;2022-09-09T03:49:42;11.43;;;8.15;;
52918;SDS011;38793;52.690;6.812;2022-09-09T03:52:08;13.48;;;9.48;;
52918;SDS011;38793;52.690;6.812;2022-09-09T03:54:35;11.25;;;8.50;;
52918;SDS011;38793;52.690;6.812;2022-09-09T03:57:00;11.35;;;8.25;;
52918;SDS011;38793;52.690;6.812;2022-09-09T03:59:26;13.90;;;8.27;;
52918;SDS011;38793;52.690;6.812;2022-09-09T04:01:52;12.95;;;9.63;;
52918;SDS011;38793;52.690;6.812;2022-09-09T04:04:18;10.07;;;8.88;;
52918;SDS011;38793;52.690;6.812;2022-09-09T04:06:45;11.18;;;8.55;;
52918;SDS011;38793;52.690;6.812;2022-09-09T04:09:11;10.10;;;7.72;;
52918;SDS011;38793;52.690;6.812;2022-09-09T04:11:36;11.65;;;7.25;;
52918;SDS011;38793;52.690;6.812;2022-09-09T04:14:02;9.02;;;8.10;;
52918;SDS011;38793;52.690;6.812;2022-09-09T04:16:30;8.73;;;7.78;;
52918;SDS011;38793;52.690;6.812;2022-09-09T04:18:57;10.38;;;7.65;;
52918;SDS011;38793;52.690;6.812;2022-09-09T04:21:23;9.40;;;7.32;;
52918;SDS011;38793;52.690;6.812;2022-09-09T04:23:48;8.65;;;6.22;;
52918;SDS011;38793;52.690;6.812;2022-09-09T04:26:14;12.07;;;7.53;;
52918;SDS011;38793;52.690;6.812;2022-09-09T04:28:40;7.30;;;6.35;;
52918;SDS011;38793;52.690;6.812;2022-09-09T04:31:09;10.23;;;6.78;;
52918;SDS011;38793;52.690;6.812;2022-09-09T04:33:44;13.35;;;7.80;;
52918;SDS011;38793;52.690;6.812;2022-09-09T04:36:11;7.47;;;6.70;;
52918;SDS011;38793;52.690;6.812;2022-09-09T04:38:37;7.65;;;5.68;;
52918;SDS011;38793;52.690;6.812;2022-09-09T04:41:03;7.10;;;5.55;;
52918;SDS011;38793;52.690;6.812;2022-09-09T04:43:29;8.80;;;6.00;;
52918;SDS011;38793;52.690;6.812;2022-09-09T04:45:55;8.90;;;6.00;;
52918;SDS011;38793;52.690;6.812;2022-09-09T04:48:21;9.20;;;5.30;;
52918;SDS011;38793;52.690;6.812;2022-09-09T04:51:06;6.72;;;5.78;;
52918;SDS011;38793;52.690;6.812;2022-09-09T04:53:34;7.50;;;6.00;;
52918;SDS011;38793;52.690;6.812;2022-09-09T04:56:01;5.40;;;4.78;;
52918;SDS011;38793;52.690;6.812;2022-09-09T04:58:29;6.30;;;4.78;;
52918;SDS011;38793;52.690;6.812;2022-09-09T05:00:55;5.35;;;4.85;;
52918;SDS011;38793;52.690;6.812;2022-09-09T05:03:27;5.70;;;5.13;;
52918;SDS011;38793;52.690;6.812;2022-09-09T05:05:53;4.97;;;4.53;;
52918;SDS011;38793;52.690;6.812;2022-09-09T05:08:19;5.23;;;4.73;;
52918;SDS011;38793;52.690;6.812;2022-09-09T05:10:45;8.77;;;4.45;;
52918;SDS011;38793;52.690;6.812;2022-09-09T05:13:11;8.20;;;5.15;;
52918;SDS011;38793;52.690;6.812;2022-09-09T05:15:36;5.60;;;4.45;;
52918;SDS011;38793;52.690;6.812;2022-09-09T05:18:02;7.30;;;4.65;;
52918;SDS011;38793;52.690;6.812;2022-09-09T05:20:28;6.50;;;5.90;;
52918;SDS011;38793;52.690;6.812;2022-09-09T05:22:54;6.97;;;5.70;;
52918;SDS011;38793;52.690;6.812;2022-09-09T05:25:21;5.07;;;4.57;;
52918;SDS011;38793;52.690;6.812;2022-09-09T05:27:47;5.97;;;5.35;;
52918;SDS011;38793;52.690;6.812;2022-09-09T05:30:14;5.30;;;4.35;;
52918;SDS011;38793;52.690;6.812;2022-09-09T05:32:40;8.20;;;5.38;;
52918;SDS011;38793;52.690;6.812;2022-09-09T05:35:06;5.43;;;4.82;;
52918;SDS011;38793;52.690;6.812;2022-09-09T05:37:31;6.70;;;5.43;;
52918;SDS011;38793;52.690;6.812;2022-09-09T05:39:57;7.05;;;5.30;;
52918;SDS011;38793;52.690;6.812;2022-09-09T05:42:23;5.57;;;4.60;;
52918;SDS011;38793;52.690;6.812;2022-09-09T05:44:48;10.73;;;5.75;;
52918;SDS011;38793;52.690;6.812;2022-09-09T05:47:15;8.60;;;5.35;;
52918;SDS011;38793;52.690;6.812;2022-09-09T05:49:42;6.13;;;5.47;;
52918;SDS011;38793;52.690;6.812;2022-09-09T05:52:07;6.40;;;4.85;;
52918;SDS011;38793;52.690;6.812;2022-09-09T05:54:34;5.75;;;5.18;;
52918;SDS011;38793;52.690;6.812;2022-09-09T05:57:00;9.93;;;5.53;;
52918;SDS011;38793;52.690;6.812;2022-09-09T05:59:25;6.53;;;5.88;;
52918;SDS011;38793;52.690;6.812;2022-09-09T06:01:51;6.22;;;5.70;;
52918;SDS011;38793;52.690;6.812;2022-09-09T06:04:17;6.03;;;5.03;;
52918;SDS011;38793;52.690;6.812;2022-09-09T06:06:43;9.43;;;5.75;;
52918;SDS011;38793;52.690;6.812;2022-09-09T06:09:08;6.00;;;5.05;;
52918;SDS011;38793;52.690;6.812;2022-09-09T06:11:36;5.55;;;5.05;;
52918;SDS011;38793;52.690;6.812;2022-09-09T06:14:03;8.10;;;5.65;;
52918;SDS011;38793;52.690;6.812;2022-09-09T06:16:29;8.25;;;5.40;;
52918;SDS011;38793;52.690;6.812;2022-09-09T06:18:57;10.13;;;5.78;;
52918;SDS011;38793;52.690;6.812;2022-09-09T06:21:24;6.93;;;3.65;;
52918;SDS011;38793;52.690;6.812;2022-09-09T06:23:51;4.70;;;2.60;;
52918;SDS011;38793;52.690;6.812;2022-09-09T06:26:21;8.48;;;4.95;;
52918;SDS011;38793;52.690;6.812;2022-09-09T06:29:01;8.20;;;4.38;;
52918;SDS011;38793;52.690;6.812;2022-09-09T06:31:29;8.27;;;4.53;;
52918;SDS011;38793;52.690;6.812;2022-09-09T06:33:56;5.72;;;4.78;;
52918;SDS011;38793;52.690;6.812;2022-09-09T06:36:24;8.50;;;5.05;;
52918;SDS011;38793;52.690;6.812;2022-09-09T06:38:51;4.80;;;4.15;;
52918;SDS011;38793;52.690;6.812;2022-09-09T06:41:18;7.32;;;5.20;;
52918;SDS011;38793;52.690;6.812;2022-09-09T06:43:46;6.20;;;4.25;;
52918;SDS011;38793;52.690;6.812;2022-09-09T06:46:13;8.40;;;5.38;;
52918;SDS011;38793;52.690;6.812;2022-09-09T06:48:41;8.70;;;4.80;;
52918;SDS011;38793;52.690;6.812;2022-09-09T06:53:38;4.75;;;3.40;;
52918;SDS011;38793;52.690;6.812;2022-09-09T06:58:43;6.10;;;3.80;;
52918;SDS011;38793;52.690;6.812;2022-09-09T07:01:13;7.13;;;3.97;;
52918;SDS011;38793;52.690;6.812;2022-09-09T07:03:41;6.93;;;3.58;;
52918;SDS011;38793;52.690;6.812;2022-09-09T07:06:13;11.43;;;4.00;;
52918;SDS011;38793;52.690;6.812;2022-09-09T07:08:41;9.45;;;5.18;;
52918;SDS011;38793;52.690;6.812;2022-09-09T07:13:34;5.82;;;2.95;;
52918;SDS011;38793;52.690;6.812;2022-09-09T07:16:07;10.38;;;4.25;;
52918;SDS011;38793;52.690;6.812;2022-09-09T07:18:34;6.95;;;4.18;;
52918;SDS011;38793;52.690;6.812;2022-09-09T07:23:27;12.38;;;4.55;;
52918;SDS011;38793;52.690;6.812;2022-09-09T07:25:52;4.88;;;3.92;;
52918;SDS011;38793;52.690;6.812;2022-09-09T07:28:19;7.45;;;4.07;;
52918;SDS011;38793;52.690;6.812;2022-09-09T07:30:52;7.15;;;3.78;;
52918;SDS011;38793;52.690;6.812;2022-09-09T07:33:19;5.10;;;4.38;;
52918;SDS011;38793;52.690;6.812;2022-09-09T07:35:45;9.38;;;4.63;;
52918;SDS011;38793;52.690;6.812;2022-09-09T07:38:10;5.80;;;3.95;;
52918;SDS011;38793;52.690;6.812;2022-09-09T07:40:36;8.88;;;3.53;;
52918;SDS011;38793;52.690;6.812;2022-09-09T07:43:02;6.85;;;3.65;;
52918;SDS011;38793;52.690;6.812;2022-09-09T07:45:27;8.52;;;4.18;;
52918;SDS011;38793;52.690;6.812;2022-09-09T07:47:53;7.38;;;3.85;;
52918;SDS011;38793;52.690;6.812;2022-09-09T07:50:21;7.10;;;3.35;;
52918;SDS011;38793;52.690;6.812;2022-09-09T07:52:48;6.30;;;3.50;;
52918;SDS011;38793;52.690;6.812;2022-09-09T07:55:15;11.13;;;4.13;;
52918;SDS011;38793;52.690;6.812;2022-09-09T07:57:41;13.07;;;4.70;;
52918;SDS011;38793;52.690;6.812;2022-09-09T08:00:06;6.95;;;3.08;;
52918;SDS011;38793;52.690;6.812;2022-09-09T08:02:33;5.47;;;3.30;;
52918;SDS011;38793;52.690;6.812;2022-09-09T08:04:58;7.75;;;3.58;;
52918;SDS011;38793;52.690;6.812;2022-09-09T08:07:24;5.47;;;3.33;;
52918;SDS011;38793;52.690;6.812;2022-09-09T08:09:49;8.75;;;3.22;;
52918;SDS011;38793;52.690;6.812;2022-09-09T08:12:15;7.13;;;3.40;;
52918;SDS011;38793;52.690;6.812;2022-09-09T08:14:41;6.50;;;2.90;;
52918;SDS011;38793;52.690;6.812;2022-09-09T08:17:06;8.68;;;3.70;;
52918;SDS011;38793;52.690;6.812;2022-09-09T08:19:32;7.32;;;3.40;;
52918;SDS011;38793;52.690;6.812;2022-09-09T08:22:00;6.65;;;2.85;;
52918;SDS011;38793;52.690;6.812;2022-09-09T08:24:27;6.57;;;3.22;;
52918;SDS011;38793;52.690;6.812;2022-09-09T08:26:53;6.70;;;2.67;;
52918;SDS011;38793;52.690;6.812;2022-09-09T08:29:18;5.30;;;2.80;;
52918;SDS011;38793;52.690;6.812;2022-09-09T08:31:48;9.05;;;3.30;;
52918;SDS011;38793;52.690;6.812;2022-09-09T08:34:16;10.00;;;3.53;;
52918;SDS011;38793;52.690;6.812;2022-09-09T08:36:45;5.32;;;2.92;;
52918;SDS011;38793;52.690;6.812;2022-09-09T08:39:13;9.63;;;3.28;;
52918;SDS011;38793;52.690;6.812;2022-09-09T08:47:11;6.53;;;2.58;;
52918;SDS011;38793;52.690;6.812;2022-09-09T08:52:48;6.70;;;2.72;;
52918;SDS011;38793;52.690;6.812;2022-09-09T08:55:35;5.45;;;2.78;;
52918;SDS011;38793;52.690;6.812;2022-09-09T08:58:16;9.25;;;3.10;;
52918;SDS011;38793;52.690;6.812;2022-09-09T09:01:05;12.25;;;2.95;;
52918;SDS011;38793;52.690;6.812;2022-09-09T09:09:02;7.85;;;2.72;;
52918;SDS011;38793;52.690;6.812;2022-09-09T09:11:35;8.68;;;2.20;;
52918;SDS011;38793;52.690;6.812;2022-09-09T09:14:03;8.50;;;3.10;;
52918;SDS011;38793;52.690;6.812;2022-09-09T09:19:21;8.63;;;2.17;;
52918;SDS011;38793;52.690;6.812;2022-09-09T09:21:52;5.43;;;2.03;;
52918;SDS011;38793;52.690;6.812;2022-09-09T09:24:24;3.20;;;1.65;;
52918;SDS011;38793;52.690;6.812;2022-09-09T09:26:57;8.00;;;2.17;;
52918;SDS011;38793;52.690;6.812;2022-09-09T09:29:26;9.73;;;2.35;;
52918;SDS011;38793;52.690;6.812;2022-09-09T09:31:52;9.27;;;2.25;;
52918;SDS011;38793;52.690;6.812;2022-09-09T09:34:20;9.98;;;1.50;;
52918;SDS011;38793;52.690;6.812;2022-09-09T09:36:57;4.55;;;1.42;;
52918;SDS011;38793;52.690;6.812;2022-09-09T09:39:29;10.77;;;1.95;;
52918;SDS011;38793;52.690;6.812;2022-09-09T09:41:56;13.07;;;1.95;;
52918;SDS011;38793;52.690;6.812;2022-09-09T09:46:51;9.57;;;2.08;;
52918;SDS011;38793;52.690;6.812;2022-09-09T09:51:43;5.03;;;1.10;;
52918;SDS011;38793;52.690;6.812;2022-09-09T09:54:17;9.75;;;1.50;;
52918;SDS011;38793;52.690;6.812;2022-09-09T09:56:50;9.68;;;1.38;;
52918;SDS011;38793;52.690;6.812;2022-09-09T09:59:59;6.70;;;1.33;;
52918;SDS011;38793;52.690;6.812;2022-09-09T10:04:42;5.28;;;0.98;;
52918;SDS011;38793;52.690;6.812;2022-09-09T10:07:15;8.68;;;1.23;;
52918;SDS011;38793;52.690;6.812;2022-09-09T10:09:44;6.78;;;1.08;;
52918;SDS011;38793;52.690;6.812;2022-09-09T10:17:55;9.95;;;1.48;;
52918;SDS011;38793;52.690;6.812;2022-09-09T10:26:24;5.13;;;1.20;;
52918;SDS011;38793;52.690;6.812;2022-09-09T10:29:14;6.95;;;1.15;;
52918;SDS011;38793;52.690;6.812;2022-09-09T10:34:49;6.65;;;0.70;;
52918;SDS011;38793;52.690;6.812;2022-09-09T10:37:43;6.70;;;0.60;;
52918;SDS011;38793;52.690;6.812;2022-09-09T10:40:34;7.05;;;0.80;;
52918;SDS011;38793;52.690;6.812;2022-09-09T10:43:16;6.53;;;0.95;;
52918;SDS011;38793;52.690;6.812;2022-09-09T10:48:44;6.78;;;0.88;;
52918;SDS011;38793;52.690;6.812;2022-09-09T10:51:44;7.53;;;0.80;;
52918;SDS011;38793;52.690;6.812;2022-09-09T10:54:52;7.68;;;1.40;;
52918;SDS011;38793;52.690;6.812;2022-09-09T10:57:27;5.20;;;0.82;;
52918;SDS011;38793;52.690;6.812;2022-09-09T11:00:01;3.45;;;0.52;;
52918;SDS011;38793;52.690;6.812;2022-09-09T11:02:38;4.72;;;0.63;;
52918;SDS011;38793;52.690;6.812;2022-09-09T11:05:09;4.95;;;0.60;;
52918;SDS011;38793;52.690;6.812;2022-09-09T11:07:46;8.88;;;0.98;;
52918;SDS011;38793;52.690;6.812;2022-09-09T11:10:34;8.50;;;0.80;;
52918;SDS011;38793;52.690;6.812;2022-09-09T11:13:19;7.80;;;0.85;;
52918;SDS011;38793;52.690;6.812;2022-09-09T11:15:52;5.63;;;0.70;;
52918;SDS011;38793;52.690;6.812;2022-09-09T11:18:22;7.00;;;0.60;;
52918;SDS011;38793;52.690;6.812;2022-09-09T11:20:49;3.53;;;0.52;;
52918;SDS011;38793;52.690;6.812;2022-09-09T11:23:22;7.50;;;0.68;;
52918;SDS011;38793;52.690;6.812;2022-09-09T11:25:54;6.28;;;0.80;;
52918;SDS011;38793;52.690;6.812;2022-09-09T11:28:26;3.47;;;0.65;;
52918;SDS011;38793;52.690;6.812;2022-09-09T11:31:24;3.60;;;0.70;;
52918;SDS011;38793;52.690;6.812;2022-09-09T11:41:47;9.02;;;0.77;;
52918;SDS011;38793;52.690;6.812;2022-09-09T11:44:16;7.25;;;1.15;;
52918;SDS011;38793;52.690;6.812;2022-09-09T11:46:49;5.35;;;0.70;;
52918;SDS011;38793;52.690;6.812;2022-09-09T11:49:38;4.93;;;0.60;;
52918;SDS011;38793;52.690;6.812;2022-09-09T11:52:23;4.07;;;0.50;;
52918;SDS011;38793;52.690;6.812;2022-09-09T11:55:07;6.30;;;1.02;;
52918;SDS011;38793;52.690;6.812;2022-09-09T11:58:02;3.08;;;0.65;;
52918;SDS011;38793;52.690;6.812;2022-09-09T12:00:41;7.07;;;0.93;;
52918;SDS011;38793;52.690;6.812;2022-09-09T12:05:58;7.07;;;0.80;;
52918;SDS011;38793;52.690;6.812;2022-09-09T12:08:26;3.67;;;0.30;;
52918;SDS011;38793;52.690;6.812;2022-09-09T12:10:54;2.72;;;0.35;;
52918;SDS011;38793;52.690;6.812;2022-09-09T12:13:25;3.47;;;0.52;;
52918;SDS011;38793;52.690;6.812;2022-09-09T12:18:25;7.13;;;0.52;;
52918;SDS011;38793;52.690;6.812;2022-09-09T12:24:09;6.05;;;0.60;;
52918;SDS011;38793;52.690;6.812;2022-09-09T12:30:09;6.10;;;0.52;;
52918;SDS011;38793;52.690;6.812;2022-09-09T12:32:36;4.30;;;0.50;;
52918;SDS011;38793;52.690;6.812;2022-09-09T12:38:45;5.07;;;0.88;;
52918;SDS011;38793;52.690;6.812;2022-09-09T12:40:53;4.60;;;0.95;;
52918;SDS011;38793;52.690;6.812;2022-09-09T12:43:21;4.72;;;0.77;;
52918;SDS011;38793;52.690;6.812;2022-09-09T12:45:52;4.70;;;0.73;;
52918;SDS011;38793;52.690;6.812;2022-09-09T12:48:39;3.67;;;0.63;;
52918;SDS011;38793;52.690;6.812;2022-09-09T12:51:19;4.45;;;0.60;;
52918;SDS011;38793;52.690;6.812;2022-09-09T12:53:50;4.88;;;0.60;;
52918;SDS011;38793;52.690;6.812;2022-09-09T12:58:46;2.33;;;0.65;;
52918;SDS011;38793;52.690;6.812;2022-09-09T13:01:22;5.00;;;0.93;;
52918;SDS011;38793;52.690;6.812;2022-09-09T13:03:53;5.35;;;0.43;;
52918;SDS011;38793;52.690;6.812;2022-09-09T13:06:29;3.15;;;0.95;;
52918;SDS011;38793;52.690;6.812;2022-09-09T13:08:57;6.75;;;1.33;;
52918;SDS011;38793;52.690;6.812;2022-09-09T13:11:26;7.70;;;1.25;;
52918;SDS011;38793;52.690;6.812;2022-09-09T13:13:56;8.00;;;1.15;;
52918;SDS011;38793;52.690;6.812;2022-09-09T13:16:27;7.90;;;1.63;;
52918;SDS011;38793;52.690;6.812;2022-09-09T13:19:01;6.32;;;0.95;;
52918;SDS011;38793;52.690;6.812;2022-09-09T13:21:33;4.55;;;0.93;;
52918;SDS011;38793;52.690;6.812;2022-09-09T13:24:04;4.25;;;0.55;;
52918;SDS011;38793;52.690;6.812;2022-09-09T13:26:32;2.95;;;0.88;;
52918;SDS011;38793;52.690;6.812;2022-09-09T13:32:03;2.08;;;0.30;;
52918;SDS011;38793;52.690;6.812;2022-09-09T13:34:34;2.72;;;0.40;;
52918;SDS011;38793;52.690;6.812;2022-09-09T13:37:01;4.90;;;1.10;;
52918;SDS011;38793;52.690;6.812;2022-09-09T13:39:30;3.92;;;0.30;;
52918;SDS011;38793;52.690;6.812;2022-09-09T13:41:59;5.15;;;0.40;;
52918;SDS011;38793;52.690;6.812;2022-09-09T13:44:28;5.93;;;0.60;;
52918;SDS011;38793;52.690;6.812;2022-09-09T13:47:00;3.85;;;0.52;;
52918;SDS011;38793;52.690;6.812;2022-09-09T13:49:28;2.67;;;0.35;;
52918;SDS011;38793;52.690;6.812;2022-09-09T13:52:14;5.15;;;0.40;;
52918;SDS011;38793;52.690;6.812;2022-09-09T13:54:42;7.32;;;0.40;;
52918;SDS011;38793;52.690;6.812;2022-09-09T13:57:14;1.45;;;0.20;;
52918;SDS011;38793;52.690;6.812;2022-09-09T14:02:11;4.53;;;0.40;;
52918;SDS011;38793;52.690;6.812;2022-09-09T14:04:36;1.50;;;0.30;;
52918;SDS011;38793;52.690;6.812;2022-09-09T14:07:02;0.90;;;0.30;;
52918;SDS011;38793;52.690;6.812;2022-09-09T14:11:54;2.83;;;0.17;;
52918;SDS011;38793;52.690;6.812;2022-09-09T14:14:22;3.83;;;0.20;;
52918;SDS011;38793;52.690;6.812;2022-09-09T14:16:48;2.95;;;0.40;;
52918;SDS011;38793;52.690;6.812;2022-09-09T14:19:13;2.40;;;0.63;;
52918;SDS011;38793;52.690;6.812;2022-09-09T14:21:39;1.98;;;0.25;;
52918;SDS011;38793;52.690;6.812;2022-09-09T14:24:05;2.17;;;0.20;;
52918;SDS011;38793;52.690;6.812;2022-09-09T14:28:57;1.55;;;0.60;;
52918;SDS011;38793;52.690;6.812;2022-09-09T14:31:23;2.13;;;0.30;;
52918;SDS011;38793;52.690;6.812;2022-09-09T14:33:49;2.65;;;0.40;;
52918;SDS011;38793;52.690;6.812;2022-09-09T14:38:41;2.45;;;0.40;;
52918;SDS011;38793;52.690;6.812;2022-09-09T14:41:15;2.58;;;0.68;;
52918;SDS011;38793;52.690;6.812;2022-09-09T14:43:42;2.95;;;0.50;;
52918;SDS011;38793;52.690;6.812;2022-09-09T14:46:12;2.67;;;0.75;;
52918;SDS011;38793;52.690;6.812;2022-09-09T14:48:39;1.63;;;0.50;;
52918;SDS011;38793;52.690;6.812;2022-09-09T14:51:10;5.25;;;1.02;;
52918;SDS011;38793;52.690;6.812;2022-09-09T14:53:38;3.33;;;0.77;;
52918;SDS011;38793;52.690;6.812;2022-09-09T14:56:05;2.92;;;0.60;;
52918;SDS011;38793;52.690;6.812;2022-09-09T14:58:32;2.67;;;0.60;;
52918;SDS011;38793;52.690;6.812;2022-09-09T15:01:02;4.13;;;0.63;;
52918;SDS011;38793;52.690;6.812;2022-09-09T15:03:31;1.33;;;0.40;;
52918;SDS011;38793;52.690;6.812;2022-09-09T15:05:57;2.90;;;0.60;;
52918;SDS011;38793;52.690;6.812;2022-09-09T15:08:25;3.38;;;0.65;;
52918;SDS011;38793;52.690;6.812;2022-09-09T15:10:58;4.72;;;1.02;;
52918;SDS011;38793;52.690;6.812;2022-09-09T15:13:24;3.03;;;0.70;;
52918;SDS011;38793;52.690;6.812;2022-09-09T15:15:50;2.90;;;1.20;;
52918;SDS011;38793;52.690;6.812;2022-09-09T15:18:15;1.92;;;0.90;;
52918;SDS011;38793;52.690;6.812;2022-09-09T15:20:44;2.15;;;0.60;;
52918;SDS011;38793;52.690;6.812;2022-09-09T15:23:11;6.88;;;0.85;;
52918;SDS011;38793;52.690;6.812;2022-09-09T15:25:37;1.58;;;0.95;;
52918;SDS011;38793;52.690;6.812;2022-09-09T15:28:03;2.53;;;0.68;;
52918;SDS011;38793;52.690;6.812;2022-09-09T15:30:28;1.98;;;0.70;;
52918;SDS011;38793;52.690;6.812;2022-09-09T15:32:54;3.33;;;0.90;;
52918;SDS011;38793;52.690;6.812;2022-09-09T15:35:19;1.95;;;0.85;;
52918;SDS011;38793;52.690;6.812;2022-09-09T15:37:45;5.03;;;1.23;;
52918;SDS011;38793;52.690;6.812;2022-09-09T15:40:11;3.33;;;0.50;;
52918;SDS011;38793;52.690;6.812;2022-09-09T15:42:36;3.17;;;0.73;;
52918;SDS011;38793;52.690;6.812;2022-09-09T15:45:02;1.45;;;0.70;;
52918;SDS011;38793;52.690;6.812;2022-09-09T15:47:30;2.58;;;0.82;;
52918;SDS011;38793;52.690;6.812;2022-09-09T15:49:55;7.93;;;1.25;;
52918;SDS011;38793;52.690;6.812;2022-09-09T15:52:21;4.28;;;1.20;;
52918;SDS011;38793;52.690;6.812;2022-09-09T15:54:46;1.40;;;0.80;;
52918;SDS011;38793;52.690;6.812;2022-09-09T15:57:12;2.88;;;1.08;;
52918;SDS011;38793;52.690;6.812;2022-09-09T15:59:38;5.32;;;1.00;;
52918;SDS011;38793;52.690;6.812;2022-09-09T16:02:05;3.65;;;1.45;;
52918;SDS011;38793;52.690;6.812;2022-09-09T16:04:31;3.22;;;0.60;;
52918;SDS011;38793;52.690;6.812;2022-09-09T16:07:00;3.65;;;1.77;;
52918;SDS011;38793;52.690;6.812;2022-09-09T16:09:28;5.75;;;0.70;;
52918;SDS011;38793;52.690;6.812;2022-09-09T16:14:23;7.22;;;0.73;;
52918;SDS011;38793;52.690;6.812;2022-09-09T16:16:50;5.05;;;0.85;;
52918;SDS011;38793;52.690;6.812;2022-09-09T16:19:16;6.60;;;1.23;;
52918;SDS011;38793;52.690;6.812;2022-09-09T16:21:43;2.80;;;0.95;;
52918;SDS011;38793;52.690;6.812;2022-09-09T16:24:11;4.47;;;0.95;;
52918;SDS011;38793;52.690;6.812;2022-09-09T16:26:39;2.83;;;1.00;;
52918;SDS011;38793;52.690;6.812;2022-09-09T16:29:07;5.32;;;1.40;;
52918;SDS011;38793;52.690;6.812;2022-09-09T16:31:34;2.55;;;0.60;;
52918;SDS011;38793;52.690;6.812;2022-09-09T16:36:26;3.28;;;0.90;;
52918;SDS011;38793;52.690;6.812;2022-09-09T16:38:53;3.05;;;0.85;;
52918;SDS011;38793;52.690;6.812;2022-09-09T16:41:20;3.33;;;0.60;;
52918;SDS011;38793;52.690;6.812;2022-09-09T16:43:46;2.58;;;0.50;;
52918;SDS011;38793;52.690;6.812;2022-09-09T16:46:15;6.05;;;1.20;;
52918;SDS011;38793;52.690;6.812;2022-09-09T16:48:43;1.13;;;0.20;;
52918;SDS011;38793;52.690;6.812;2022-09-09T16:53:48;4.00;;;0.40;;
52918;SDS011;38793;52.690;6.812;2022-09-09T16:56:17;5.07;;;0.43;;
52918;SDS011;38793;52.690;6.812;2022-09-09T16:58:48;3.25;;;0.50;;
52918;SDS011;38793;52.690;6.812;2022-09-09T17:01:21;4.50;;;0.60;;
52918;SDS011;38793;52.690;6.812;2022-09-09T17:03:47;2.58;;;0.77;;
52918;SDS011;38793;52.690;6.812;2022-09-09T17:06:16;7.30;;;0.82;;
52918;SDS011;38793;52.690;6.812;2022-09-09T17:08:42;4.60;;;0.50;;
52918;SDS011;38793;52.690;6.812;2022-09-09T17:11:14;4.53;;;0.60;;
52918;SDS011;38793;52.690;6.812;2022-09-09T17:13:45;3.38;;;0.70;;
52918;SDS011;38793;52.690;6.812;2022-09-09T17:16:13;3.15;;;0.70;;
52918;SDS011;38793;52.690;6.812;2022-09-09T17:18:40;2.83;;;1.13;;
52918;SDS011;38793;52.690;6.812;2022-09-09T17:21:06;13.45;;;1.27;;